Terminal Aerodrome Forecast
Issued by NWS Louisville, KY

Home | Current Version | Previous Version | Text Only | Print | Product List | Glossary On
Versions: 1 2 3 4 5 6 7 8 9 10 11 12 13 14
000
FTUS43 KLMK 212300
TAFLEX
TAF
KLEX 212320Z 2200/2224 21008KT P6SM BKN150
     FM220300 21006KT P6SM VCSH BKN050
     FM221100 26008KT 5SM BR VCSH BKN015
     FM221400 32010KT P6SM BKN015
     FM222000 33012G18KT P6SM SCT030=

USA.gov is the U.S. government's official web portal to all federal, state and local government web resources and services.